sensor_id;sensor_type;location;lat;lon;timestamp;P1;durP1;ratioP1;P2;durP2;ratioP2
75320;SDS011;68337;52.196;5.660;2023-07-13T00:00:43;15.00;;;3.08;;
75320;SDS011;68337;52.196;5.660;2023-07-13T00:03:09;8.02;;;2.00;;
75320;SDS011;68337;52.196;5.660;2023-07-13T00:05:39;10.77;;;2.42;;
75320;SDS011;68337;52.196;5.660;2023-07-13T00:08:06;12.27;;;2.78;;
75320;SDS011;68337;52.196;5.660;2023-07-13T00:10:33;12.25;;;2.72;;
75320;SDS011;68337;52.196;5.660;2023-07-13T00:12:59;12.05;;;2.72;;
75320;SDS011;68337;52.196;5.660;2023-07-13T00:15:26;15.13;;;3.33;;
75320;SDS011;68337;52.196;5.660;2023-07-13T00:17:53;13.45;;;3.15;;
75320;SDS011;68337;52.196;5.660;2023-07-13T00:20:20;13.32;;;3.15;;
75320;SDS011;68337;52.196;5.660;2023-07-13T00:22:48;10.50;;;2.78;;
75320;SDS011;68337;52.196;5.660;2023-07-13T00:25:14;13.95;;;3.03;;
75320;SDS011;68337;52.196;5.660;2023-07-13T00:27:41;7.18;;;2.20;;
75320;SDS011;68337;52.196;5.660;2023-07-13T00:30:09;8.68;;;2.35;;
75320;SDS011;68337;52.196;5.660;2023-07-13T00:32:35;9.40;;;2.28;;
75320;SDS011;68337;52.196;5.660;2023-07-13T00:35:02;10.55;;;2.58;;
75320;SDS011;68337;52.196;5.660;2023-07-13T00:37:29;10.50;;;2.60;;
75320;SDS011;68337;52.196;5.660;2023-07-13T00:39:55;10.27;;;2.90;;
75320;SDS011;68337;52.196;5.660;2023-07-13T00:42:21;9.93;;;2.60;;
75320;SDS011;68337;52.196;5.660;2023-07-13T00:45:07;11.18;;;2.65;;
75320;SDS011;68337;52.196;5.660;2023-07-13T00:47:36;9.98;;;2.92;;
75320;SDS011;68337;52.196;5.660;2023-07-13T00:50:02;11.27;;;3.20;;
75320;SDS011;68337;52.196;5.660;2023-07-13T00:52:31;13.07;;;2.95;;
75320;SDS011;68337;52.196;5.660;2023-07-13T00:54:57;6.00;;;2.70;;
75320;SDS011;68337;52.196;5.660;2023-07-13T00:57:24;9.75;;;3.15;;
75320;SDS011;68337;52.196;5.660;2023-07-13T00:59:52;11.60;;;3.67;;
75320;SDS011;68337;52.196;5.660;2023-07-13T01:02:22;12.68;;;3.53;;
75320;SDS011;68337;52.196;5.660;2023-07-13T01:04:49;9.23;;;3.42;;
75320;SDS011;68337;52.196;5.660;2023-07-13T01:07:15;9.63;;;2.70;;
75320;SDS011;68337;52.196;5.660;2023-07-13T01:09:41;9.00;;;3.53;;
75320;SDS011;68337;52.196;5.660;2023-07-13T01:12:07;9.45;;;3.65;;
75320;SDS011;68337;52.196;5.660;2023-07-13T01:14:33;7.75;;;3.00;;
75320;SDS011;68337;52.196;5.660;2023-07-13T01:16:59;12.20;;;3.97;;
75320;SDS011;68337;52.196;5.660;2023-07-13T01:22:15;12.48;;;3.40;;
75320;SDS011;68337;52.196;5.660;2023-07-13T01:24:43;10.90;;;3.08;;
75320;SDS011;68337;52.196;5.660;2023-07-13T01:27:12;8.77;;;3.20;;
75320;SDS011;68337;52.196;5.660;2023-07-13T01:29:40;6.20;;;3.10;;
75320;SDS011;68337;52.196;5.660;2023-07-13T01:32:12;9.50;;;3.60;;
75320;SDS011;68337;52.196;5.660;2023-07-13T01:34:40;10.23;;;3.10;;
75320;SDS011;68337;52.196;5.660;2023-07-13T01:37:08;10.20;;;2.58;;
75320;SDS011;68337;52.196;5.660;2023-07-13T01:39:34;10.25;;;2.78;;
75320;SDS011;68337;52.196;5.660;2023-07-13T01:42:00;10.57;;;3.05;;
75320;SDS011;68337;52.196;5.660;2023-07-13T01:44:27;10.57;;;2.60;;
75320;SDS011;68337;52.196;5.660;2023-07-13T01:46:53;7.65;;;2.78;;
75320;SDS011;68337;52.196;5.660;2023-07-13T01:49:19;6.43;;;2.65;;
75320;SDS011;68337;52.196;5.660;2023-07-13T01:51:44;14.30;;;3.67;;
75320;SDS011;68337;52.196;5.660;2023-07-13T01:54:10;9.05;;;3.90;;
75320;SDS011;68337;52.196;5.660;2023-07-13T01:56:36;10.48;;;3.25;;
75320;SDS011;68337;52.196;5.660;2023-07-13T01:59:02;8.05;;;2.90;;
75320;SDS011;68337;52.196;5.660;2023-07-13T02:01:28;9.18;;;3.60;;
75320;SDS011;68337;52.196;5.660;2023-07-13T02:03:53;6.05;;;2.80;;
75320;SDS011;68337;52.196;5.660;2023-07-13T02:06:19;11.30;;;2.90;;
75320;SDS011;68337;52.196;5.660;2023-07-13T02:08:45;10.30;;;3.00;;
75320;SDS011;68337;52.196;5.660;2023-07-13T02:11:11;8.50;;;2.75;;
75320;SDS011;68337;52.196;5.660;2023-07-13T02:13:37;5.88;;;3.08;;
75320;SDS011;68337;52.196;5.660;2023-07-13T02:16:03;7.13;;;3.03;;
75320;SDS011;68337;52.196;5.660;2023-07-13T02:18:28;12.75;;;3.28;;
75320;SDS011;68337;52.196;5.660;2023-07-13T02:20:54;8.95;;;3.25;;
75320;SDS011;68337;52.196;5.660;2023-07-13T02:23:20;9.80;;;3.33;;
75320;SDS011;68337;52.196;5.660;2023-07-13T02:25:46;8.52;;;2.92;;
75320;SDS011;68337;52.196;5.660;2023-07-13T02:28:12;8.73;;;3.00;;
75320;SDS011;68337;52.196;5.660;2023-07-13T02:30:38;7.78;;;3.38;;
75320;SDS011;68337;52.196;5.660;2023-07-13T02:33:04;6.70;;;3.22;;
75320;SDS011;68337;52.196;5.660;2023-07-13T02:35:30;7.00;;;3.42;;
75320;SDS011;68337;52.196;5.660;2023-07-13T02:37:56;11.38;;;2.92;;
75320;SDS011;68337;52.196;5.660;2023-07-13T02:40:22;11.65;;;3.25;;
75320;SDS011;68337;52.196;5.660;2023-07-13T02:42:48;9.95;;;3.50;;
75320;SDS011;68337;52.196;5.660;2023-07-13T02:45:13;9.38;;;3.55;;
75320;SDS011;68337;52.196;5.660;2023-07-13T02:47:40;10.10;;;3.65;;
75320;SDS011;68337;52.196;5.660;2023-07-13T02:50:07;8.00;;;3.40;;
75320;SDS011;68337;52.196;5.660;2023-07-13T02:52:33;6.85;;;3.22;;
75320;SDS011;68337;52.196;5.660;2023-07-13T02:54:58;10.40;;;3.70;;
75320;SDS011;68337;52.196;5.660;2023-07-13T02:57:24;9.48;;;3.65;;
75320;SDS011;68337;52.196;5.660;2023-07-13T02:59:50;12.27;;;4.90;;
75320;SDS011;68337;52.196;5.660;2023-07-13T03:02:16;10.82;;;3.65;;
75320;SDS011;68337;52.196;5.660;2023-07-13T03:04:42;8.30;;;4.05;;
75320;SDS011;68337;52.196;5.660;2023-07-13T03:07:08;7.57;;;3.33;;
75320;SDS011;68337;52.196;5.660;2023-07-13T03:09:34;8.73;;;3.20;;
75320;SDS011;68337;52.196;5.660;2023-07-13T03:12:00;10.48;;;3.97;;
75320;SDS011;68337;52.196;5.660;2023-07-13T03:14:26;8.52;;;3.38;;
75320;SDS011;68337;52.196;5.660;2023-07-13T03:16:52;12.65;;;3.97;;
75320;SDS011;68337;52.196;5.660;2023-07-13T03:19:18;7.32;;;3.17;;
75320;SDS011;68337;52.196;5.660;2023-07-13T03:21:44;10.57;;;4.10;;
75320;SDS011;68337;52.196;5.660;2023-07-13T03:24:10;7.90;;;3.45;;
75320;SDS011;68337;52.196;5.660;2023-07-13T03:26:36;11.80;;;3.80;;
75320;SDS011;68337;52.196;5.660;2023-07-13T03:29:02;11.35;;;4.53;;
75320;SDS011;68337;52.196;5.660;2023-07-13T03:31:28;16.67;;;4.47;;
75320;SDS011;68337;52.196;5.660;2023-07-13T03:33:57;14.00;;;4.28;;
75320;SDS011;68337;52.196;5.660;2023-07-13T03:36:24;11.45;;;3.78;;
75320;SDS011;68337;52.196;5.660;2023-07-13T03:38:53;14.15;;;4.68;;
75320;SDS011;68337;52.196;5.660;2023-07-13T03:41:21;8.48;;;4.07;;
75320;SDS011;68337;52.196;5.660;2023-07-13T03:43:47;9.57;;;3.95;;
75320;SDS011;68337;52.196;5.660;2023-07-13T03:46:14;14.52;;;4.45;;
75320;SDS011;68337;52.196;5.660;2023-07-13T03:48:41;8.52;;;3.92;;
75320;SDS011;68337;52.196;5.660;2023-07-13T03:51:09;15.82;;;5.47;;
75320;SDS011;68337;52.196;5.660;2023-07-13T03:53:37;8.65;;;4.10;;
75320;SDS011;68337;52.196;5.660;2023-07-13T03:56:04;11.10;;;4.20;;
75320;SDS011;68337;52.196;5.660;2023-07-13T03:58:32;15.02;;;4.13;;
75320;SDS011;68337;52.196;5.660;2023-07-13T04:00:59;10.98;;;4.00;;
75320;SDS011;68337;52.196;5.660;2023-07-13T04:03:26;13.77;;;5.07;;
75320;SDS011;68337;52.196;5.660;2023-07-13T04:05:56;10.70;;;4.38;;
75320;SDS011;68337;52.196;5.660;2023-07-13T04:08:29;14.25;;;5.43;;
75320;SDS011;68337;52.196;5.660;2023-07-13T04:10:57;13.05;;;4.50;;
75320;SDS011;68337;52.196;5.660;2023-07-13T04:13:23;11.63;;;4.75;;
75320;SDS011;68337;52.196;5.660;2023-07-13T04:15:49;11.80;;;5.22;;
75320;SDS011;68337;52.196;5.660;2023-07-13T04:18:16;10.00;;;4.40;;
75320;SDS011;68337;52.196;5.660;2023-07-13T04:20:41;15.65;;;4.88;;
75320;SDS011;68337;52.196;5.660;2023-07-13T04:23:07;13.80;;;4.72;;
75320;SDS011;68337;52.196;5.660;2023-07-13T04:25:33;12.32;;;4.72;;
75320;SDS011;68337;52.196;5.660;2023-07-13T04:27:59;11.55;;;5.13;;
75320;SDS011;68337;52.196;5.660;2023-07-13T04:30:25;7.70;;;4.60;;
75320;SDS011;68337;52.196;5.660;2023-07-13T04:32:51;15.23;;;4.85;;
75320;SDS011;68337;52.196;5.660;2023-07-13T04:35:19;11.98;;;4.63;;
75320;SDS011;68337;52.196;5.660;2023-07-13T04:37:46;17.40;;;5.55;;
75320;SDS011;68337;52.196;5.660;2023-07-13T04:40:15;14.18;;;5.65;;
75320;SDS011;68337;52.196;5.660;2023-07-13T04:42:44;19.63;;;6.00;;
75320;SDS011;68337;52.196;5.660;2023-07-13T04:45:11;16.63;;;5.78;;
75320;SDS011;68337;52.196;5.660;2023-07-13T04:47:37;14.82;;;5.65;;
75320;SDS011;68337;52.196;5.660;2023-07-13T04:50:03;15.90;;;5.43;;
75320;SDS011;68337;52.196;5.660;2023-07-13T04:52:30;11.13;;;5.22;;
75320;SDS011;68337;52.196;5.660;2023-07-13T04:54:57;10.32;;;4.95;;
75320;SDS011;68337;52.196;5.660;2023-07-13T04:57:23;22.35;;;6.13;;
75320;SDS011;68337;52.196;5.660;2023-07-13T04:59:49;18.17;;;6.25;;
75320;SDS011;68337;52.196;5.660;2023-07-13T05:02:15;17.98;;;5.75;;
75320;SDS011;68337;52.196;5.660;2023-07-13T05:04:41;18.20;;;6.30;;
75320;SDS011;68337;52.196;5.660;2023-07-13T05:07:07;18.90;;;5.63;;
75320;SDS011;68337;52.196;5.660;2023-07-13T05:09:33;17.88;;;6.00;;
75320;SDS011;68337;52.196;5.660;2023-07-13T05:11:58;23.27;;;6.38;;
75320;SDS011;68337;52.196;5.660;2023-07-13T05:14:24;22.40;;;6.30;;
75320;SDS011;68337;52.196;5.660;2023-07-13T05:16:50;24.60;;;6.50;;
75320;SDS011;68337;52.196;5.660;2023-07-13T05:19:16;26.80;;;7.07;;
75320;SDS011;68337;52.196;5.660;2023-07-13T05:21:42;17.42;;;7.47;;
75320;SDS011;68337;52.196;5.660;2023-07-13T05:24:08;21.35;;;8.50;;
75320;SDS011;68337;52.196;5.660;2023-07-13T05:26:33;23.92;;;8.15;;
75320;SDS011;68337;52.196;5.660;2023-07-13T05:28:59;18.73;;;7.28;;
75320;SDS011;68337;52.196;5.660;2023-07-13T05:31:25;20.25;;;6.57;;
75320;SDS011;68337;52.196;5.660;2023-07-13T05:33:51;23.85;;;7.22;;
75320;SDS011;68337;52.196;5.660;2023-07-13T05:36:17;20.65;;;7.88;;
75320;SDS011;68337;52.196;5.660;2023-07-13T05:38:42;23.83;;;7.90;;
75320;SDS011;68337;52.196;5.660;2023-07-13T05:41:08;15.30;;;6.75;;
75320;SDS011;68337;52.196;5.660;2023-07-13T05:43:34;22.05;;;7.50;;
75320;SDS011;68337;52.196;5.660;2023-07-13T05:46:00;22.85;;;7.75;;
75320;SDS011;68337;52.196;5.660;2023-07-13T05:48:25;19.17;;;7.72;;
75320;SDS011;68337;52.196;5.660;2023-07-13T05:50:51;20.30;;;7.22;;
75320;SDS011;68337;52.196;5.660;2023-07-13T05:53:17;20.73;;;7.47;;
75320;SDS011;68337;52.196;5.660;2023-07-13T05:55:43;17.77;;;7.32;;
75320;SDS011;68337;52.196;5.660;2023-07-13T05:58:18;13.73;;;7.35;;
75320;SDS011;68337;52.196;5.660;2023-07-13T06:00:45;16.75;;;7.80;;
75320;SDS011;68337;52.196;5.660;2023-07-13T06:03:11;18.42;;;7.18;;
75320;SDS011;68337;52.196;5.660;2023-07-13T06:05:37;18.60;;;7.97;;
75320;SDS011;68337;52.196;5.660;2023-07-13T06:08:04;19.98;;;7.22;;
75320;SDS011;68337;52.196;5.660;2023-07-13T06:10:33;20.45;;;7.25;;
75320;SDS011;68337;52.196;5.660;2023-07-13T06:13:00;24.77;;;8.65;;
75320;SDS011;68337;52.196;5.660;2023-07-13T06:15:28;21.75;;;9.85;;
75320;SDS011;68337;52.196;5.660;2023-07-13T06:17:54;19.33;;;8.43;;
75320;SDS011;68337;52.196;5.660;2023-07-13T06:20:19;28.88;;;8.85;;
75320;SDS011;68337;52.196;5.660;2023-07-13T06:22:45;20.50;;;9.75;;
75320;SDS011;68337;52.196;5.660;2023-07-13T06:25:11;22.17;;;8.73;;
75320;SDS011;68337;52.196;5.660;2023-07-13T06:27:37;20.58;;;8.70;;
75320;SDS011;68337;52.196;5.660;2023-07-13T06:30:02;20.70;;;9.27;;
75320;SDS011;68337;52.196;5.660;2023-07-13T06:32:28;23.80;;;10.00;;
75320;SDS011;68337;52.196;5.660;2023-07-13T06:34:54;21.58;;;10.68;;
75320;SDS011;68337;52.196;5.660;2023-07-13T06:37:20;21.30;;;9.52;;
75320;SDS011;68337;52.196;5.660;2023-07-13T06:39:46;21.90;;;10.93;;
75320;SDS011;68337;52.196;5.660;2023-07-13T06:42:11;24.40;;;10.57;;
75320;SDS011;68337;52.196;5.660;2023-07-13T06:44:37;23.30;;;10.30;;
75320;SDS011;68337;52.196;5.660;2023-07-13T06:47:03;21.60;;;9.68;;
75320;SDS011;68337;52.196;5.660;2023-07-13T06:49:29;23.77;;;10.25;;
75320;SDS011;68337;52.196;5.660;2023-07-13T06:51:55;25.42;;;10.30;;
75320;SDS011;68337;52.196;5.660;2023-07-13T06:54:21;19.40;;;9.70;;
75320;SDS011;68337;52.196;5.660;2023-07-13T06:56:46;22.80;;;9.90;;
75320;SDS011;68337;52.196;5.660;2023-07-13T06:59:12;17.75;;;9.55;;
75320;SDS011;68337;52.196;5.660;2023-07-13T07:01:38;22.77;;;10.50;;
75320;SDS011;68337;52.196;5.660;2023-07-13T07:04:04;18.35;;;9.98;;
75320;SDS011;68337;52.196;5.660;2023-07-13T07:06:30;26.15;;;11.25;;
75320;SDS011;68337;52.196;5.660;2023-07-13T07:08:55;24.60;;;10.45;;
75320;SDS011;68337;52.196;5.660;2023-07-13T07:11:23;33.28;;;10.93;;
75320;SDS011;68337;52.196;5.660;2023-07-13T07:13:51;27.02;;;11.02;;
75320;SDS011;68337;52.196;5.660;2023-07-13T07:16:18;25.83;;;11.45;;
75320;SDS011;68337;52.196;5.660;2023-07-13T07:18:45;21.67;;;12.27;;
75320;SDS011;68337;52.196;5.660;2023-07-13T07:21:15;17.80;;;10.90;;
75320;SDS011;68337;52.196;5.660;2023-07-13T07:23:41;27.25;;;12.63;;
75320;SDS011;68337;52.196;5.660;2023-07-13T07:26:08;22.25;;;10.75;;
75320;SDS011;68337;52.196;5.660;2023-07-13T07:28:35;22.67;;;11.30;;
75320;SDS011;68337;52.196;5.660;2023-07-13T07:31:01;21.88;;;11.27;;
75320;SDS011;68337;52.196;5.660;2023-07-13T07:33:27;24.58;;;11.82;;
75320;SDS011;68337;52.196;5.660;2023-07-13T07:35:52;23.67;;;11.07;;
75320;SDS011;68337;52.196;5.660;2023-07-13T07:38:18;21.00;;;12.38;;
75320;SDS011;68337;52.196;5.660;2023-07-13T07:40:44;20.48;;;11.23;;
75320;SDS011;68337;52.196;5.660;2023-07-13T07:43:11;24.27;;;10.93;;
75320;SDS011;68337;52.196;5.660;2023-07-13T07:45:39;25.95;;;11.75;;
75320;SDS011;68337;52.196;5.660;2023-07-13T07:48:05;18.45;;;10.90;;
75320;SDS011;68337;52.196;5.660;2023-07-13T07:50:32;23.08;;;10.68;;
75320;SDS011;68337;52.196;5.660;2023-07-13T07:52:58;19.15;;;9.85;;
75320;SDS011;68337;52.196;5.660;2023-07-13T07:55:27;26.35;;;10.60;;
75320;SDS011;68337;52.196;5.660;2023-07-13T07:57:53;22.65;;;10.80;;
75320;SDS011;68337;52.196;5.660;2023-07-13T08:00:19;24.92;;;10.45;;
75320;SDS011;68337;52.196;5.660;2023-07-13T08:02:45;31.27;;;12.05;;
75320;SDS011;68337;52.196;5.660;2023-07-13T08:05:11;27.42;;;11.80;;
75320;SDS011;68337;52.196;5.660;2023-07-13T08:07:37;25.23;;;10.73;;
75320;SDS011;68337;52.196;5.660;2023-07-13T08:10:04;19.33;;;11.65;;
75320;SDS011;68337;52.196;5.660;2023-07-13T08:12:33;22.20;;;11.20;;
75320;SDS011;68337;52.196;5.660;2023-07-13T08:15:03;21.17;;;11.70;;
75320;SDS011;68337;52.196;5.660;2023-07-13T08:17:30;19.83;;;12.00;;
75320;SDS011;68337;52.196;5.660;2023-07-13T08:19:56;26.50;;;11.20;;
75320;SDS011;68337;52.196;5.660;2023-07-13T08:22:23;17.88;;;10.85;;
75320;SDS011;68337;52.196;5.660;2023-07-13T08:24:48;25.58;;;12.02;;
75320;SDS011;68337;52.196;5.660;2023-07-13T08:27:24;19.58;;;11.05;;
75320;SDS011;68337;52.196;5.660;2023-07-13T08:29:50;19.00;;;10.77;;
75320;SDS011;68337;52.196;5.660;2023-07-13T08:32:18;28.75;;;10.85;;
75320;SDS011;68337;52.196;5.660;2023-07-13T08:34:45;27.23;;;12.57;;
75320;SDS011;68337;52.196;5.660;2023-07-13T08:37:11;22.63;;;10.82;;
75320;SDS011;68337;52.196;5.660;2023-07-13T08:39:37;21.88;;;9.95;;
75320;SDS011;68337;52.196;5.660;2023-07-13T08:42:07;20.92;;;8.52;;
75320;SDS011;68337;52.196;5.660;2023-07-13T08:44:45;18.15;;;8.85;;
75320;SDS011;68337;52.196;5.660;2023-07-13T08:50:33;12.75;;;6.07;;
75320;SDS011;68337;52.196;5.660;2023-07-13T08:53:29;16.58;;;6.43;;
75320;SDS011;68337;52.196;5.660;2023-07-13T08:56:17;13.23;;;5.68;;
75320;SDS011;68337;52.196;5.660;2023-07-13T08:59:23;16.38;;;5.78;;
75320;SDS011;68337;52.196;5.660;2023-07-13T09:05:21;10.63;;;5.07;;
75320;SDS011;68337;52.196;5.660;2023-07-13T09:11:23;14.68;;;5.43;;
75320;SDS011;68337;52.196;5.660;2023-07-13T09:17:08;14.18;;;5.03;;
75320;SDS011;68337;52.196;5.660;2023-07-13T09:20:25;9.90;;;3.53;;
75320;SDS011;68337;52.196;5.660;2023-07-13T09:22:59;5.68;;;3.33;;
75320;SDS011;68337;52.196;5.660;2023-07-13T09:25:32;8.07;;;4.40;;
75320;SDS011;68337;52.196;5.660;2023-07-13T09:28:14;5.78;;;3.05;;
75320;SDS011;68337;52.196;5.660;2023-07-13T09:30:49;7.95;;;3.28;;
75320;SDS011;68337;52.196;5.660;2023-07-13T09:33:21;9.98;;;3.15;;
75320;SDS011;68337;52.196;5.660;2023-07-13T09:35:47;5.78;;;2.88;;
75320;SDS011;68337;52.196;5.660;2023-07-13T09:38:15;7.00;;;2.15;;
75320;SDS011;68337;52.196;5.660;2023-07-13T09:46:35;5.05;;;2.40;;
75320;SDS011;68337;52.196;5.660;2023-07-13T09:49:01;7.57;;;3.20;;
75320;SDS011;68337;52.196;5.660;2023-07-13T09:51:27;4.68;;;2.72;;
75320;SDS011;68337;52.196;5.660;2023-07-13T09:53:54;4.35;;;2.70;;
75320;SDS011;68337;52.196;5.660;2023-07-13T09:56:22;5.47;;;2.97;;
75320;SDS011;68337;52.196;5.660;2023-07-13T09:58:49;7.78;;;3.28;;
75320;SDS011;68337;52.196;5.660;2023-07-13T10:01:15;9.95;;;3.20;;
75320;SDS011;68337;52.196;5.660;2023-07-13T10:03:55;6.32;;;3.10;;
75320;SDS011;68337;52.196;5.660;2023-07-13T10:06:22;8.43;;;3.33;;
75320;SDS011;68337;52.196;5.660;2023-07-13T10:08:49;8.80;;;3.10;;
75320;SDS011;68337;52.196;5.660;2023-07-13T10:13:48;7.75;;;3.78;;
75320;SDS011;68337;52.196;5.660;2023-07-13T10:16:23;4.85;;;2.72;;
75320;SDS011;68337;52.196;5.660;2023-07-13T10:18:53;5.85;;;2.70;;
75320;SDS011;68337;52.196;5.660;2023-07-13T10:21:22;9.93;;;2.80;;
75320;SDS011;68337;52.196;5.660;2023-07-13T10:24:15;6.43;;;3.22;;
75320;SDS011;68337;52.196;5.660;2023-07-13T10:26:58;7.38;;;3.38;;
75320;SDS011;68337;52.196;5.660;2023-07-13T10:29:36;7.43;;;3.25;;
75320;SDS011;68337;52.196;5.660;2023-07-13T10:32:09;8.55;;;3.60;;
75320;SDS011;68337;52.196;5.660;2023-07-13T10:34:40;5.65;;;2.97;;
75320;SDS011;68337;52.196;5.660;2023-07-13T10:37:15;4.53;;;3.20;;
75320;SDS011;68337;52.196;5.660;2023-07-13T10:39:48;3.33;;;2.65;;
75320;SDS011;68337;52.196;5.660;2023-07-13T10:42:16;4.22;;;2.75;;
75320;SDS011;68337;52.196;5.660;2023-07-13T10:44:51;7.88;;;2.72;;
75320;SDS011;68337;52.196;5.660;2023-07-13T10:47:16;6.70;;;2.90;;
75320;SDS011;68337;52.196;5.660;2023-07-13T10:49:43;6.18;;;3.05;;
75320;SDS011;68337;52.196;5.660;2023-07-13T10:52:45;7.32;;;3.22;;
75320;SDS011;68337;52.196;5.660;2023-07-13T10:55:33;4.22;;;2.53;;
75320;SDS011;68337;52.196;5.660;2023-07-13T10:58:13;8.32;;;2.70;;
75320;SDS011;68337;52.196;5.660;2023-07-13T11:01:26;5.57;;;3.28;;
75320;SDS011;68337;52.196;5.660;2023-07-13T11:06:10;7.57;;;2.58;;
75320;SDS011;68337;52.196;5.660;2023-07-13T11:08:57;6.05;;;2.70;;
75320;SDS011;68337;52.196;5.660;2023-07-13T11:18:47;5.43;;;2.90;;
75320;SDS011;68337;52.196;5.660;2023-07-13T11:21:22;5.97;;;2.40;;
75320;SDS011;68337;52.196;5.660;2023-07-13T11:23:53;9.50;;;2.75;;
75320;SDS011;68337;52.196;5.660;2023-07-13T11:26:42;6.35;;;3.10;;
75320;SDS011;68337;52.196;5.660;2023-07-13T11:31:43;5.18;;;2.67;;
75320;SDS011;68337;52.196;5.660;2023-07-13T11:34:30;5.40;;;2.13;;
75320;SDS011;68337;52.196;5.660;2023-07-13T11:37:00;2.92;;;2.28;;
75320;SDS011;68337;52.196;5.660;2023-07-13T11:39:33;4.32;;;2.17;;
75320;SDS011;68337;52.196;5.660;2023-07-13T11:42:03;5.30;;;2.35;;
75320;SDS011;68337;52.196;5.660;2023-07-13T11:44:34;3.40;;;1.92;;
75320;SDS011;68337;52.196;5.660;2023-07-13T11:47:07;6.03;;;2.17;;
75320;SDS011;68337;52.196;5.660;2023-07-13T11:49:43;5.70;;;2.72;;
75320;SDS011;68337;52.196;5.660;2023-07-13T11:52:14;7.63;;;2.13;;
75320;SDS011;68337;52.196;5.660;2023-07-13T11:54:46;7.32;;;2.55;;
75320;SDS011;68337;52.196;5.660;2023-07-13T11:57:28;5.13;;;2.30;;
75320;SDS011;68337;52.196;5.660;2023-07-13T11:59:56;6.22;;;2.33;;
75320;SDS011;68337;52.196;5.660;2023-07-13T12:02:31;7.88;;;2.22;;
75320;SDS011;68337;52.196;5.660;2023-07-13T12:05:01;6.25;;;2.60;;
75320;SDS011;68337;52.196;5.660;2023-07-13T12:07:30;10.05;;;2.78;;
75320;SDS011;68337;52.196;5.660;2023-07-13T12:10:13;3.65;;;2.35;;
75320;SDS011;68337;52.196;5.660;2023-07-13T12:13:08;6.80;;;2.88;;
75320;SDS011;68337;52.196;5.660;2023-07-13T12:15:37;6.35;;;2.90;;
75320;SDS011;68337;52.196;5.660;2023-07-13T12:18:38;5.43;;;3.10;;
75320;SDS011;68337;52.196;5.660;2023-07-13T12:20:59;4.43;;;2.70;;
75320;SDS011;68337;52.196;5.660;2023-07-13T12:23:32;4.70;;;2.80;;
75320;SDS011;68337;52.196;5.660;2023-07-13T12:26:01;5.53;;;2.53;;
75320;SDS011;68337;52.196;5.660;2023-07-13T12:31:00;4.45;;;2.72;;
75320;SDS011;68337;52.196;5.660;2023-07-13T12:33:28;6.47;;;2.90;;
75320;SDS011;68337;52.196;5.660;2023-07-13T12:35:56;6.38;;;2.90;;
75320;SDS011;68337;52.196;5.660;2023-07-13T12:38:25;5.20;;;2.65;;
75320;SDS011;68337;52.196;5.660;2023-07-13T12:40:51;4.78;;;2.53;;
75320;SDS011;68337;52.196;5.660;2023-07-13T12:43:17;6.03;;;2.80;;
75320;SDS011;68337;52.196;5.660;2023-07-13T12:48:23;7.75;;;2.42;;
75320;SDS011;68337;52.196;5.660;2023-07-13T12:50:49;2.72;;;2.30;;
75320;SDS011;68337;52.196;5.660;2023-07-13T12:53:21;8.20;;;2.95;;
75320;SDS011;68337;52.196;5.660;2023-07-13T12:55:54;5.70;;;2.75;;
75320;SDS011;68337;52.196;5.660;2023-07-13T12:58:29;7.00;;;2.70;;
75320;SDS011;68337;52.196;5.660;2023-07-13T13:01:31;6.07;;;2.33;;
75320;SDS011;68337;52.196;5.660;2023-07-13T13:04:08;7.22;;;2.53;;
75320;SDS011;68337;52.196;5.660;2023-07-13T13:06:36;3.78;;;2.30;;
75320;SDS011;68337;52.196;5.660;2023-07-13T13:09:02;4.72;;;2.47;;
75320;SDS011;68337;52.196;5.660;2023-07-13T13:11:29;5.40;;;2.85;;
75320;SDS011;68337;52.196;5.660;2023-07-13T13:13:56;5.35;;;2.53;;
75320;SDS011;68337;52.196;5.660;2023-07-13T13:18:52;4.18;;;2.33;;
75320;SDS011;68337;52.196;5.660;2023-07-13T13:21:22;5.15;;;1.90;;
75320;SDS011;68337;52.196;5.660;2023-07-13T13:23:50;9.40;;;2.40;;
75320;SDS011;68337;52.196;5.660;2023-07-13T13:26:18;4.47;;;2.50;;
75320;SDS011;68337;52.196;5.660;2023-07-13T13:28:44;5.65;;;1.88;;
75320;SDS011;68337;52.196;5.660;2023-07-13T13:31:14;3.55;;;2.00;;
75320;SDS011;68337;52.196;5.660;2023-07-13T13:33:43;4.38;;;2.00;;
75320;SDS011;68337;52.196;5.660;2023-07-13T13:36:17;5.38;;;2.03;;
75320;SDS011;68337;52.196;5.660;2023-07-13T13:38:45;6.10;;;2.15;;
75320;SDS011;68337;52.196;5.660;2023-07-13T13:41:13;6.25;;;2.35;;
75320;SDS011;68337;52.196;5.660;2023-07-13T13:43:42;4.25;;;2.03;;
75320;SDS011;68337;52.196;5.660;2023-07-13T13:46:14;3.20;;;2.00;;
75320;SDS011;68337;52.196;5.660;2023-07-13T13:48:42;6.68;;;2.70;;
75320;SDS011;68337;52.196;5.660;2023-07-13T13:51:14;4.53;;;2.40;;
75320;SDS011;68337;52.196;5.660;2023-07-13T13:53:42;5.43;;;2.28;;
75320;SDS011;68337;52.196;5.660;2023-07-13T13:56:08;4.75;;;2.30;;
75320;SDS011;68337;52.196;5.660;2023-07-13T13:58:34;5.55;;;2.17;;
75320;SDS011;68337;52.196;5.660;2023-07-13T14:01:00;6.93;;;1.98;;
75320;SDS011;68337;52.196;5.660;2023-07-13T14:03:26;7.55;;;2.50;;
75320;SDS011;68337;52.196;5.660;2023-07-13T14:05:53;7.57;;;2.50;;
75320;SDS011;68337;52.196;5.660;2023-07-13T14:08:20;7.40;;;2.33;;
75320;SDS011;68337;52.196;5.660;2023-07-13T14:10:47;4.38;;;2.00;;
75320;SDS011;68337;52.196;5.660;2023-07-13T14:13:19;3.47;;;1.92;;
75320;SDS011;68337;52.196;5.660;2023-07-13T14:15:52;6.57;;;2.17;;
75320;SDS011;68337;52.196;5.660;2023-07-13T14:18:19;10.27;;;2.50;;
75320;SDS011;68337;52.196;5.660;2023-07-13T14:20:45;7.30;;;2.15;;
75320;SDS011;68337;52.196;5.660;2023-07-13T14:23:15;4.97;;;2.42;;
75320;SDS011;68337;52.196;5.660;2023-07-13T14:25:43;4.30;;;2.20;;
75320;SDS011;68337;52.196;5.660;2023-07-13T14:28:24;5.25;;;2.42;;
75320;SDS011;68337;52.196;5.660;2023-07-13T14:30:51;5.70;;;2.65;;
75320;SDS011;68337;52.196;5.660;2023-07-13T14:33:19;7.47;;;2.13;;
75320;SDS011;68337;52.196;5.660;2023-07-13T14:35:46;3.22;;;2.15;;
75320;SDS011;68337;52.196;5.660;2023-07-13T14:38:16;3.85;;;2.15;;
75320;SDS011;68337;52.196;5.660;2023-07-13T14:40:45;4.70;;;2.40;;
75320;SDS011;68337;52.196;5.660;2023-07-13T14:43:11;2.63;;;2.40;;
75320;SDS011;68337;52.196;5.660;2023-07-13T14:45:48;4.63;;;2.42;;
75320;SDS011;68337;52.196;5.660;2023-07-13T14:48:20;4.05;;;2.10;;
75320;SDS011;68337;52.196;5.660;2023-07-13T14:50:50;5.88;;;2.55;;
75320;SDS011;68337;52.196;5.660;2023-07-13T14:53:19;4.53;;;2.55;;
75320;SDS011;68337;52.196;5.660;2023-07-13T14:55:45;4.28;;;2.33;;
75320;SDS011;68337;52.196;5.660;2023-07-13T14:58:11;6.20;;;2.28;;
75320;SDS011;68337;52.196;5.660;2023-07-13T15:00:38;2.10;;;1.90;;
75320;SDS011;68337;52.196;5.660;2023-07-13T15:03:05;2.75;;;2.15;;
75320;SDS011;68337;52.196;5.660;2023-07-13T15:05:44;4.00;;;2.20;;
75320;SDS011;68337;52.196;5.660;2023-07-13T15:08:10;2.28;;;1.92;;
75320;SDS011;68337;52.196;5.660;2023-07-13T15:10:36;4.60;;;1.90;;
75320;SDS011;68337;52.196;5.660;2023-07-13T15:13:18;3.95;;;1.90;;
75320;SDS011;68337;52.196;5.660;2023-07-13T15:15:47;5.50;;;1.88;;
75320;SDS011;68337;52.196;5.660;2023-07-13T15:18:15;5.75;;;2.30;;
75320;SDS011;68337;52.196;5.660;2023-07-13T15:20:43;6.60;;;2.25;;
75320;SDS011;68337;52.196;5.660;2023-07-13T15:23:11;4.38;;;2.40;;
75320;SDS011;68337;52.196;5.660;2023-07-13T15:25:41;4.75;;;1.95;;
75320;SDS011;68337;52.196;5.660;2023-07-13T15:28:11;5.05;;;2.40;;
75320;SDS011;68337;52.196;5.660;2023-07-13T15:30:47;5.85;;;1.95;;
75320;SDS011;68337;52.196;5.660;2023-07-13T15:33:20;4.00;;;1.98;;
75320;SDS011;68337;52.196;5.660;2023-07-13T15:35:54;3.10;;;2.03;;